Terminal Aerodrome Forecast
Issued by NWS Paducah, KY

Home | Current Version | Previous Version | Text Only | Print | Product List | Glossary Off
Versions: 1 2 3 4 5 6 7 8 9 10 11 12 13 14 15 16 17

885
FTUS43 KPAH 262320
TAFPAH
TAF
KPAH 262320Z 2700/2724 14007KT P6SM SCT060 BKN120
     FM270400 14005KT 5SM -RA SCT015 OVC050
     FM271200 15005KT P6SM SCT007 OVC015=

USA.gov is the U.S. government's official web portal to all federal, state and local government web resources and services.